createdAt,value
2023-05-17T00:00:37.972Z,28.80
2023-05-17T00:02:46.973Z,28.80
2023-05-17T00:04:54.508Z,28.80
2023-05-17T00:07:01.820Z,28.80
2023-05-17T00:09:08.894Z,28.90
2023-05-17T00:11:16.334Z,28.80
2023-05-17T00:13:23.620Z,28.90
2023-05-17T00:15:31.147Z,28.90
2023-05-17T00:17:39.112Z,29.00
2023-05-17T00:19:48.169Z,29.10
2023-05-17T00:21:55.623Z,29.10
2023-05-17T00:24:02.803Z,29.20
2023-05-17T00:26:10.000Z,29.20
2023-05-17T00:28:17.523Z,29.30
2023-05-17T00:30:24.706Z,29.40
2023-05-17T00:32:32.015Z,29.40
2023-05-17T00:34:39.071Z,29.50
2023-05-17T00:36:48.146Z,29.50
2023-05-17T00:38:55.279Z,29.60
2023-05-17T00:41:02.506Z,29.60
2023-05-17T00:43:09.637Z,29.70
2023-05-17T00:45:17.126Z,29.70
2023-05-17T00:47:24.138Z,29.80
2023-05-17T00:49:32.003Z,29.80
2023-05-17T00:51:40.079Z,29.80
2023-05-17T00:53:49.448Z,29.90
2023-05-17T00:55:57.441Z,29.90
2023-05-17T00:58:04.879Z,30.00
2023-05-17T01:00:12.989Z,30.10
2023-05-17T01:02:20.877Z,30.10
2023-05-17T01:04:28.751Z,30.20
2023-05-17T01:06:36.675Z,30.30
2023-05-17T01:08:48.627Z,30.30
2023-05-17T01:11:04.896Z,30.40
2023-05-17T01:13:18.806Z,30.50
2023-05-17T01:15:30.064Z,30.50
2023-05-17T01:17:44.012Z,30.60
2023-05-17T01:20:10.319Z,30.70
2023-05-17T01:22:29.665Z,30.70
2023-05-17T01:24:48.977Z,30.80
2023-05-17T01:27:00.000Z,30.90
2023-05-17T01:29:11.638Z,30.90
2023-05-17T01:31:19.690Z,30.90
2023-05-17T01:33:27.772Z,31.00
2023-05-17T01:35:35.078Z,31.00
2023-05-17T01:37:42.525Z,31.10
2023-05-17T01:39:50.572Z,31.10
2023-05-17T01:42:08.449Z,31.20
2023-05-17T01:44:21.677Z,31.30
2023-05-17T01:46:31.999Z,31.30
2023-05-17T01:48:43.035Z,31.40
2023-05-17T01:50:54.123Z,31.40
2023-05-17T01:53:10.933Z,31.50
2023-05-17T01:55:29.580Z,31.50
2023-05-17T01:57:41.213Z,31.60
2023-05-17T01:59:49.062Z,31.60
2023-05-17T02:01:59.010Z,31.70
2023-05-17T02:04:06.062Z,31.70
2023-05-17T02:06:13.492Z,31.80
2023-05-17T02:08:21.459Z,31.80
2023-05-17T02:10:29.071Z,31.90
2023-05-17T02:12:38.453Z,32.00
2023-05-17T02:14:45.992Z,32.00
2023-05-17T02:16:53.436Z,32.10
2023-05-17T02:19:00.926Z,32.10
2023-05-17T02:21:08.740Z,32.20
2023-05-17T02:23:16.627Z,32.20
2023-05-17T02:25:23.749Z,32.30
2023-05-17T02:27:31.387Z,32.40
2023-05-17T02:29:42.202Z,32.40
2023-05-17T02:31:49.694Z,32.50
2023-05-17T02:33:58.099Z,32.50
2023-05-17T02:36:05.341Z,32.70
2023-05-17T02:38:12.622Z,32.70
2023-05-17T02:40:21.664Z,32.80
2023-05-17T02:42:28.929Z,32.90
2023-05-17T02:44:36.060Z,32.90
2023-05-17T02:46:45.812Z,33.00
2023-05-17T02:48:52.945Z,33.10
2023-05-17T02:51:00.011Z,33.20
2023-05-17T02:53:07.295Z,33.30
2023-05-17T02:55:14.525Z,33.40
2023-05-17T02:57:21.810Z,33.40
2023-05-17T02:59:29.605Z,33.50
2023-05-17T03:01:37.452Z,33.60
2023-05-17T03:03:47.188Z,33.60
2023-05-17T03:05:55.403Z,33.70
2023-05-17T03:08:03.298Z,33.80
2023-05-17T03:10:12.428Z,33.90
2023-05-17T03:12:23.651Z,33.90
2023-05-17T03:14:31.150Z,33.90
2023-05-17T03:16:38.581Z,34.00
2023-05-17T03:18:48.126Z,34.00
2023-05-17T03:20:55.925Z,34.10
2023-05-17T03:23:03.561Z,34.10
2023-05-17T03:25:13.143Z,34.20
2023-05-17T03:27:20.842Z,34.20
2023-05-17T03:29:28.934Z,34.30
2023-05-17T03:31:36.885Z,34.30
2023-05-17T03:33:44.008Z,34.30
2023-05-17T03:35:53.704Z,34.30
2023-05-17T03:38:01.146Z,34.30
2023-05-17T03:40:09.456Z,34.30
2023-05-17T03:42:16.687Z,34.30
2023-05-17T03:44:24.393Z,34.40
2023-05-17T03:46:33.096Z,34.50
2023-05-17T03:48:40.881Z,34.60
2023-05-17T03:50:49.711Z,34.60
2023-05-17T03:52:59.507Z,34.70
2023-05-17T03:55:07.050Z,34.70
2023-05-17T03:57:14.592Z,34.70
2023-05-17T03:59:22.437Z,34.70
2023-05-17T04:01:30.180Z,34.80
2023-05-17T04:03:38.489Z,34.80
2023-05-17T04:05:47.777Z,34.90
2023-05-17T04:07:55.111Z,34.90
2023-05-17T04:10:04.798Z,34.80
2023-05-17T04:12:13.204Z,34.90
2023-05-17T04:14:21.411Z,35.00
2023-05-17T04:16:28.540Z,35.00
2023-05-17T04:18:37.995Z,35.10
2023-05-17T04:20:45.399Z,35.10
2023-05-17T04:22:53.004Z,35.20
2023-05-17T04:25:00.397Z,35.30
2023-05-17T04:27:11.018Z,35.40
2023-05-17T04:29:18.089Z,35.40
2023-05-17T04:31:25.366Z,35.40
2023-05-17T04:33:32.521Z,35.50
2023-05-17T04:35:40.446Z,35.50
2023-05-17T04:37:47.683Z,35.50
2023-05-17T04:40:01.877Z,35.50
2023-05-17T04:42:13.320Z,35.60
2023-05-17T04:44:26.580Z,35.60
2023-05-17T04:46:34.025Z,35.70
2023-05-17T04:48:41.711Z,35.80
2023-05-17T04:50:50.004Z,35.80
2023-05-17T04:52:57.307Z,35.80
2023-05-17T04:55:04.741Z,35.80
2023-05-17T04:57:14.073Z,35.90
2023-05-17T04:59:35.284Z,35.90
2023-05-17T05:01:42.978Z,36.00
2023-05-17T05:03:50.690Z,36.00
2023-05-17T05:05:58.081Z,36.00
2023-05-17T05:08:05.497Z,36.00
2023-05-17T05:10:13.800Z,36.00
2023-05-17T05:12:23.594Z,36.10
2023-05-17T05:14:31.235Z,36.10
2023-05-17T05:16:38.724Z,36.10
2023-05-17T05:18:46.316Z,36.10
2023-05-17T05:20:53.802Z,36.20
2023-05-17T05:23:02.113Z,36.20
2023-05-17T05:25:10.217Z,36.30
2023-05-17T05:27:17.804Z,36.40
2023-05-17T05:29:26.571Z,36.40
2023-05-17T05:31:34.062Z,36.40
2023-05-17T05:33:44.088Z,36.50
2023-05-17T05:35:51.450Z,36.50
2023-05-17T05:37:58.630Z,36.50
2023-05-17T05:40:06.325Z,36.50
2023-05-17T05:42:13.559Z,36.50
2023-05-17T05:44:20.688Z,36.60
2023-05-17T05:46:30.940Z,36.60
2023-05-17T05:48:42.714Z,36.60
2023-05-17T05:50:49.403Z,36.60
2023-05-17T05:53:07.080Z,36.70
2023-05-17T05:55:22.247Z,36.70
2023-05-17T05:57:29.562Z,36.70
2023-05-17T05:59:37.178Z,36.80
2023-05-17T06:01:46.654Z,36.80
2023-05-17T06:03:54.100Z,36.80
2023-05-17T06:06:01.308Z,36.80
2023-05-17T06:08:09.179Z,36.80
2023-05-17T06:10:16.270Z,36.90
2023-05-17T06:12:23.523Z,36.90
2023-05-17T06:14:31.324Z,37.00
2023-05-17T06:16:38.828Z,37.10
2023-05-17T06:18:51.405Z,37.10
2023-05-17T06:20:58.977Z,37.10
2023-05-17T06:23:06.268Z,37.20
2023-05-17T06:25:14.239Z,37.30
2023-05-17T06:27:21.803Z,37.40
2023-05-17T06:29:29.379Z,37.30
2023-05-17T06:31:36.729Z,37.30
2023-05-17T06:33:46.141Z,37.30
2023-05-17T06:35:57.620Z,37.40
2023-05-17T06:38:05.643Z,37.50
2023-05-17T06:40:16.561Z,37.50
2023-05-17T06:42:24.364Z,37.50
2023-05-17T06:44:31.887Z,37.50
2023-05-17T06:46:39.436Z,37.50
2023-05-17T06:48:50.792Z,37.50
2023-05-17T06:50:58.772Z,37.50
2023-05-17T06:53:06.106Z,37.50
2023-05-17T06:55:13.862Z,37.50
2023-05-17T06:57:20.874Z,37.40
2023-05-17T06:59:28.119Z,37.30
2023-05-17T07:01:36.208Z,37.20
2023-05-17T07:03:43.942Z,37.20
2023-05-17T07:05:53.029Z,37.30
2023-05-17T07:08:00.312Z,37.40
2023-05-17T07:10:07.714Z,37.50
2023-05-17T07:12:15.103Z,37.50
2023-05-17T07:14:22.116Z,37.50
2023-05-17T07:16:29.450Z,37.60
2023-05-17T07:18:36.891Z,37.50
2023-05-17T07:20:47.090Z,37.60
2023-05-17T07:22:56.370Z,37.60
2023-05-17T07:25:04.166Z,37.70
2023-05-17T07:27:11.465Z,37.70
2023-05-17T07:29:19.065Z,37.60
2023-05-17T07:31:26.279Z,37.50
2023-05-17T07:33:33.887Z,37.30
2023-05-17T07:35:41.000Z,37.30
2023-05-17T07:37:48.440Z,37.20
2023-05-17T07:40:00.057Z,37.10
2023-05-17T07:42:07.252Z,37.20
2023-05-17T07:44:14.590Z,37.30
2023-05-17T07:46:21.774Z,37.50
2023-05-17T07:48:29.059Z,37.40
2023-05-17T07:50:37.109Z,37.30
2023-05-17T07:52:44.444Z,37.30
2023-05-17T07:54:51.997Z,37.40
2023-05-17T07:57:01.327Z,37.40
2023-05-17T07:59:08.548Z,37.40
2023-05-17T08:01:15.582Z,37.50
2023-05-17T08:03:23.326Z,37.40
2023-05-17T08:05:30.941Z,37.30
2023-05-17T08:07:38.908Z,37.30
2023-05-17T08:09:46.515Z,37.30
2023-05-17T08:11:53.832Z,37.40
2023-05-17T08:14:02.648Z,37.50
2023-05-17T08:16:14.320Z,37.50
2023-05-17T08:18:22.089Z,37.40
2023-05-17T08:20:29.480Z,37.40
2023-05-17T08:22:41.779Z,37.40
2023-05-17T08:24:49.627Z,37.40
2023-05-17T08:26:57.637Z,37.50
2023-05-17T08:29:07.386Z,37.50
2023-05-17T08:31:14.938Z,37.50
2023-05-17T08:33:24.547Z,37.40
2023-05-17T08:35:32.637Z,37.40
2023-05-17T08:37:40.293Z,37.30
2023-05-17T08:39:47.364Z,37.40
2023-05-17T08:41:55.118Z,37.40
2023-05-17T08:44:02.707Z,37.40
2023-05-17T08:46:13.322Z,37.40
2023-05-17T08:48:20.974Z,37.40
2023-05-17T08:50:31.041Z,37.40
2023-05-17T08:52:40.833Z,37.40
2023-05-17T08:54:48.396Z,37.40
2023-05-17T08:56:59.570Z,37.40
2023-05-17T08:59:08.188Z,37.40
2023-05-17T09:01:17.834Z,37.40
2023-05-17T09:03:26.877Z,37.40
2023-05-17T09:05:34.111Z,37.20
2023-05-17T09:07:41.831Z,37.00
2023-05-17T09:09:49.163Z,36.90
2023-05-17T09:11:56.548Z,37.00
2023-05-17T09:14:04.550Z,37.00
2023-05-17T09:16:19.307Z,37.00
2023-05-17T09:18:34.964Z,37.00
2023-05-17T09:20:43.603Z,37.00
2023-05-17T09:22:53.479Z,37.00
2023-05-17T09:25:03.751Z,36.90
2023-05-17T09:27:10.888Z,36.90
2023-05-17T09:29:19.398Z,36.90
2023-05-17T09:31:28.174Z,36.90
2023-05-17T09:33:35.538Z,36.80
2023-05-17T09:35:43.654Z,36.80
2023-05-17T09:37:51.298Z,36.70
2023-05-17T09:39:59.503Z,36.70
2023-05-17T09:42:07.609Z,36.70
2023-05-17T09:44:15.921Z,36.70
2023-05-17T09:46:24.583Z,36.70
2023-05-17T09:48:34.245Z,36.70
2023-05-17T09:50:46.572Z,36.70
2023-05-17T09:52:53.808Z,36.60
2023-05-17T09:55:02.212Z,36.50
2023-05-17T09:57:11.457Z,36.50
2023-05-17T09:59:19.703Z,36.40
2023-05-17T10:01:29.075Z,36.30
2023-05-17T10:03:39.224Z,36.30
2023-05-17T10:05:48.928Z,36.30
2023-05-17T10:07:59.652Z,36.20
2023-05-17T10:10:08.002Z,36.10
2023-05-17T10:12:17.185Z,36.10
2023-05-17T10:14:29.609Z,36.00
2023-05-17T10:16:38.205Z,35.90
2023-05-17T10:18:47.989Z,35.90
2023-05-17T10:20:56.056Z,35.80
2023-05-17T10:23:07.270Z,35.70
2023-05-17T10:25:15.535Z,35.60
2023-05-17T10:27:23.736Z,35.60
2023-05-17T10:29:32.557Z,35.60
2023-05-17T10:31:39.744Z,35.50
2023-05-17T10:33:53.502Z,35.50
2023-05-17T10:36:01.422Z,35.40
2023-05-17T10:38:08.757Z,35.40
2023-05-17T10:40:16.330Z,35.30
2023-05-17T10:42:25.528Z,35.30
2023-05-17T10:44:46.889Z,35.20
2023-05-17T10:46:59.292Z,35.20
2023-05-17T10:49:07.340Z,35.20
2023-05-17T10:51:15.293Z,35.10
2023-05-17T10:53:23.038Z,35.10
2023-05-17T10:55:40.312Z,35.00
2023-05-17T10:57:51.402Z,34.90
2023-05-17T11:00:04.906Z,34.90
2023-05-17T11:02:13.165Z,34.80
2023-05-17T11:04:28.823Z,34.80
2023-05-17T11:06:40.707Z,34.70
2023-05-17T11:08:49.658Z,34.70
2023-05-17T11:11:16.965Z,34.60
2023-05-17T11:13:29.275Z,34.50
2023-05-17T11:15:37.981Z,34.40
2023-05-17T11:17:57.454Z,34.40
2023-05-17T11:20:13.762Z,34.40
2023-05-17T11:22:21.936Z,34.30
2023-05-17T11:24:30.365Z,34.20
2023-05-17T11:26:41.079Z,34.20
2023-05-17T11:28:48.571Z,34.20
2023-05-17T11:31:04.915Z,34.20
2023-05-17T11:33:24.942Z,34.10
2023-05-17T11:35:41.349Z,34.10
2023-05-17T11:37:50.482Z,34.00
2023-05-17T11:40:08.972Z,34.00
2023-05-17T11:42:28.799Z,33.90
2023-05-17T11:44:36.800Z,33.90
2023-05-17T11:46:46.131Z,33.90
2023-05-17T11:48:55.444Z,33.70
2023-05-17T11:51:02.809Z,33.60
2023-05-17T11:53:11.206Z,33.40
2023-05-17T11:55:19.517Z,33.30
2023-05-17T11:57:32.543Z,33.30
2023-05-17T11:59:42.174Z,33.10
2023-05-17T12:01:51.968Z,33.10
2023-05-17T12:04:01.381Z,33.00
2023-05-17T12:06:12.553Z,32.90
2023-05-17T12:08:21.138Z,32.90
2023-05-17T12:10:29.577Z,32.80
2023-05-17T12:12:37.705Z,32.70
2023-05-17T12:14:49.344Z,32.60
2023-05-17T12:17:00.368Z,32.60
2023-05-17T12:19:07.672Z,32.50
2023-05-17T12:21:17.701Z,32.50
2023-05-17T12:23:32.215Z,32.50
2023-05-17T12:25:39.487Z,32.60
2023-05-17T12:27:46.817Z,32.60
2023-05-17T12:29:54.324Z,32.50
2023-05-17T12:34:27.676Z,32.40
2023-05-17T12:36:36.380Z,32.30
2023-05-17T12:38:44.911Z,32.20
2023-05-17T12:40:52.643Z,32.10
2023-05-17T12:43:06.323Z,32.00
2023-05-17T12:45:15.555Z,32.00
2023-05-17T12:47:22.527Z,32.00
2023-05-17T12:49:31.601Z,32.00
2023-05-17T12:51:45.887Z,31.90
2023-05-17T12:53:56.867Z,31.90
2023-05-17T12:56:04.000Z,31.90
2023-05-17T12:58:11.304Z,31.90
2023-05-17T13:00:19.596Z,32.00
2023-05-17T13:02:27.036Z,32.00
2023-05-17T13:04:39.055Z,32.00
2023-05-17T13:06:51.085Z,32.10
2023-05-17T13:09:03.580Z,32.10
2023-05-17T13:11:15.730Z,32.20
2023-05-17T13:13:23.681Z,32.30
2023-05-17T13:15:33.265Z,32.30
2023-05-17T13:17:45.765Z,32.20
2023-05-17T13:19:55.290Z,32.20
2023-05-17T13:22:02.800Z,32.20
2023-05-17T13:24:12.245Z,32.20
2023-05-17T13:26:19.776Z,32.20
2023-05-17T13:28:27.476Z,32.20
2023-05-17T13:30:34.466Z,32.20
2023-05-17T13:32:42.216Z,32.20
2023-05-17T13:34:49.994Z,32.10
2023-05-17T13:36:59.983Z,32.00
2023-05-17T13:39:07.388Z,32.10
2023-05-17T13:41:15.012Z,32.00
2023-05-17T13:43:22.410Z,32.00
2023-05-17T13:45:30.004Z,32.00
2023-05-17T13:47:37.291Z,32.10
2023-05-17T13:49:47.115Z,32.10
2023-05-17T13:51:54.419Z,32.10
2023-05-17T13:54:05.164Z,32.10
2023-05-17T13:56:13.118Z,32.20
2023-05-17T13:58:20.541Z,32.20
2023-05-17T14:00:28.190Z,32.20
2023-05-17T14:02:35.910Z,32.20
2023-05-17T14:04:43.303Z,32.20
2023-05-17T14:06:53.147Z,32.20
2023-05-17T14:09:04.462Z,32.20
2023-05-17T14:11:12.640Z,32.20
2023-05-17T14:13:19.992Z,32.20
2023-05-17T14:15:28.593Z,32.20
2023-05-17T14:17:35.952Z,32.20
2023-05-17T14:19:43.899Z,32.20
2023-05-17T14:21:51.229Z,32.20
2023-05-17T14:23:58.561Z,32.30
2023-05-17T14:26:08.408Z,32.20
2023-05-17T14:28:16.091Z,32.20
2023-05-17T14:30:23.687Z,32.20
2023-05-17T14:32:31.417Z,32.20
2023-05-17T14:34:38.975Z,32.10
2023-05-17T14:36:46.412Z,32.00
2023-05-17T14:38:54.006Z,32.00
2023-05-17T14:41:03.324Z,31.90
2023-05-17T14:43:12.413Z,31.80
2023-05-17T14:45:19.450Z,31.80
2023-05-17T14:47:27.538Z,31.60
2023-05-17T14:49:34.926Z,31.60
2023-05-17T14:51:42.315Z,31.60
2023-05-17T14:53:50.058Z,31.60
2023-05-17T14:55:57.140Z,31.60
2023-05-17T14:58:04.740Z,31.60
2023-05-17T15:00:14.778Z,31.50
2023-05-17T15:02:22.686Z,31.50
2023-05-17T15:04:29.943Z,31.50
2023-05-17T15:06:37.551Z,31.50
2023-05-17T15:08:44.731Z,31.40
2023-05-17T15:10:52.937Z,31.40
2023-05-17T15:12:59.996Z,31.30
2023-05-17T15:15:07.675Z,31.20
2023-05-17T15:17:16.803Z,31.10
2023-05-17T15:19:24.418Z,31.00
2023-05-17T15:21:31.562Z,31.00
2023-05-17T15:23:38.842Z,31.00
2023-05-17T15:25:46.083Z,30.90
2023-05-17T15:27:54.240Z,30.80
2023-05-17T15:30:01.673Z,30.80
2023-05-17T15:32:09.724Z,30.70
2023-05-17T15:34:18.936Z,30.60
2023-05-17T15:36:26.638Z,30.60
2023-05-17T15:38:33.915Z,30.60
2023-05-17T15:40:41.522Z,30.60
2023-05-17T15:42:48.915Z,30.60
2023-05-17T15:44:56.448Z,30.60
2023-05-17T15:47:03.781Z,30.50
2023-05-17T15:49:11.470Z,30.50
2023-05-17T15:51:20.604Z,30.40
2023-05-17T15:53:28.574Z,30.40
2023-05-17T15:55:35.889Z,30.30
2023-05-17T15:57:43.837Z,30.30
2023-05-17T15:59:51.277Z,30.20
2023-05-17T16:01:58.867Z,30.20
2023-05-17T16:04:05.864Z,30.20
2023-05-17T16:06:13.232Z,30.20
2023-05-17T16:08:22.049Z,30.30
2023-05-17T16:10:29.397Z,30.20
2023-05-17T16:12:36.977Z,30.30
2023-05-17T16:14:45.383Z,30.30
2023-05-17T16:16:52.881Z,30.30
2023-05-17T16:19:00.383Z,30.30
2023-05-17T16:21:09.031Z,30.40
2023-05-17T16:23:16.416Z,30.40
2023-05-17T16:25:27.356Z,30.30
2023-05-17T16:27:34.927Z,30.40
2023-05-17T16:29:42.578Z,30.30
2023-05-17T16:31:52.414Z,30.30
2023-05-17T16:33:59.731Z,30.20
2023-05-17T16:36:07.854Z,30.20
2023-05-17T16:38:15.394Z,30.20
2023-05-17T16:40:24.526Z,30.20
2023-05-17T16:42:32.372Z,30.20
2023-05-17T16:44:39.761Z,30.20
2023-05-17T16:46:47.315Z,30.20
2023-05-17T16:48:54.986Z,30.20
2023-05-17T16:51:02.577Z,30.20
2023-05-17T16:53:10.068Z,30.10
2023-05-17T16:55:17.401Z,30.10
2023-05-17T16:57:26.484Z,30.10
2023-05-17T16:59:34.223Z,30.10
2023-05-17T17:01:41.597Z,30.10
2023-05-17T17:03:49.535Z,30.10
2023-05-17T17:05:56.842Z,30.10
2023-05-17T17:08:04.441Z,30.10
2023-05-17T17:10:12.689Z,30.20
2023-05-17T17:12:24.705Z,30.20
2023-05-17T17:14:34.839Z,30.20
2023-05-17T17:16:42.821Z,30.20
2023-05-17T17:18:50.647Z,30.20
2023-05-17T17:20:58.373Z,30.20
2023-05-17T17:23:05.337Z,30.30
2023-05-17T17:25:13.466Z,30.30
2023-05-17T17:27:20.534Z,30.30
2023-05-17T17:29:27.866Z,30.30
2023-05-17T17:31:37.151Z,30.30
2023-05-17T17:33:44.787Z,30.30
2023-05-17T17:35:52.333Z,30.40
2023-05-17T17:37:59.771Z,30.30
2023-05-17T17:40:07.111Z,30.30
2023-05-17T17:42:14.766Z,30.30
2023-05-17T17:44:21.793Z,30.30
2023-05-17T17:46:31.035Z,30.30
2023-05-17T17:48:40.034Z,30.30
2023-05-17T17:50:47.677Z,30.30
2023-05-17T17:52:55.062Z,30.20
2023-05-17T17:55:02.604Z,30.20
2023-05-17T17:57:09.941Z,30.20
2023-05-17T17:59:17.288Z,30.20
2023-05-17T18:01:24.754Z,30.20
2023-05-17T18:03:32.308Z,30.20
2023-05-17T18:05:41.030Z,30.10
2023-05-17T18:07:48.507Z,30.10
2023-05-17T18:09:55.534Z,30.10
2023-05-17T18:12:02.870Z,30.00
2023-05-17T18:14:09.952Z,30.00
2023-05-17T18:16:17.661Z,29.90
2023-05-17T18:18:25.033Z,29.90
2023-05-17T18:20:32.654Z,29.90
2023-05-17T18:22:41.647Z,29.80
2023-05-17T18:24:49.188Z,29.80
2023-05-17T18:26:56.522Z,29.70
2023-05-17T18:29:05.086Z,29.70
2023-05-17T18:31:12.422Z,29.70
2023-05-17T18:33:20.213Z,29.60
2023-05-17T18:35:27.402Z,29.60
2023-05-17T18:37:34.833Z,29.50
2023-05-17T18:39:43.980Z,29.50
2023-05-17T18:41:51.408Z,29.50
2023-05-17T18:44:02.725Z,29.40
2023-05-17T18:46:09.343Z,29.30
2023-05-17T18:48:16.668Z,29.20
2023-05-17T18:50:24.222Z,29.20
2023-05-17T18:52:31.606Z,29.20
2023-05-17T18:54:38.904Z,29.20
2023-05-17T18:56:47.815Z,29.10
2023-05-17T18:58:55.659Z,29.10
2023-05-17T19:01:03.641Z,29.10
2023-05-17T19:03:11.195Z,29.10
2023-05-17T19:05:18.290Z,29.10
2023-05-17T19:07:25.718Z,29.20
2023-05-17T19:09:33.088Z,29.10
2023-05-17T19:11:40.601Z,29.00
2023-05-17T19:13:49.320Z,29.00
2023-05-17T19:15:56.546Z,29.00
2023-05-17T19:18:03.711Z,28.90
2023-05-17T19:20:13.511Z,28.90
2023-05-17T19:22:20.651Z,28.80
2023-05-17T19:24:27.676Z,28.90
2023-05-17T19:26:35.116Z,28.80
2023-05-17T19:28:42.351Z,28.80
2023-05-17T19:30:51.835Z,28.90
2023-05-17T19:32:59.189Z,28.90
2023-05-17T19:35:06.707Z,29.00
2023-05-17T19:37:14.103Z,28.90
2023-05-17T19:39:21.689Z,28.90
2023-05-17T19:41:29.391Z,28.90
2023-05-17T19:43:37.999Z,28.80
2023-05-17T19:45:45.280Z,28.70
2023-05-17T19:47:54.859Z,28.70
2023-05-17T19:50:02.463Z,28.60
2023-05-17T19:52:10.614Z,28.60
2023-05-17T19:54:17.947Z,28.60
2023-05-17T19:56:26.430Z,28.50
2023-05-17T19:58:33.393Z,28.40
2023-05-17T20:00:40.829Z,28.40
2023-05-17T20:02:49.524Z,28.40
2023-05-17T20:04:58.782Z,28.40
2023-05-17T20:07:06.120Z,28.40
2023-05-17T20:09:13.756Z,28.40
2023-05-17T20:11:21.089Z,28.30
2023-05-17T20:13:29.858Z,28.20
2023-05-17T20:15:36.985Z,28.20
2023-05-17T20:17:45.173Z,28.20
2023-05-17T20:19:53.600Z,28.20
2023-05-17T20:22:03.248Z,28.20
2023-05-17T20:24:11.083Z,28.20
2023-05-17T20:26:20.057Z,28.10
2023-05-17T20:28:27.189Z,28.10
2023-05-17T20:30:34.724Z,28.10
2023-05-17T20:32:42.212Z,28.10
2023-05-17T20:34:49.553Z,28.10
2023-05-17T20:36:57.348Z,28.10
2023-05-17T20:39:06.316Z,28.10
2023-05-17T20:41:15.981Z,28.10
2023-05-17T20:43:29.835Z,28.00
2023-05-17T20:45:37.509Z,28.00
2023-05-17T20:47:44.744Z,27.90
2023-05-17T20:49:52.774Z,27.80
2023-05-17T20:52:05.487Z,27.80
2023-05-17T20:54:14.495Z,27.80
2023-05-17T20:56:21.493Z,27.80
2023-05-17T20:58:30.005Z,27.70
2023-05-17T21:00:37.490Z,27.70
2023-05-17T21:02:45.047Z,27.70
2023-05-17T21:04:52.161Z,27.70
2023-05-17T21:07:00.141Z,27.60
2023-05-17T21:09:07.496Z,27.50
2023-05-17T21:11:22.054Z,27.50
2023-05-17T21:13:29.642Z,27.40
2023-05-17T21:15:37.436Z,27.40
2023-05-17T21:17:44.664Z,27.40
2023-05-17T21:19:52.211Z,27.30
2023-05-17T21:21:59.292Z,27.30
2023-05-17T21:24:06.684Z,27.40
2023-05-17T21:26:15.460Z,27.40
2023-05-17T21:28:23.598Z,27.40
2023-05-17T21:30:31.873Z,27.30
2023-05-17T21:32:39.832Z,27.30
2023-05-17T21:34:48.322Z,27.30
2023-05-17T21:37:02.726Z,27.30
2023-05-17T21:39:16.403Z,27.30
2023-05-17T21:41:26.779Z,27.30
2023-05-17T21:43:35.583Z,27.30
2023-05-17T21:45:50.900Z,27.30
2023-05-17T21:47:59.548Z,27.30
2023-05-17T21:50:09.159Z,27.30
2023-05-17T21:52:21.253Z,27.30
2023-05-17T21:54:32.022Z,27.30
2023-05-17T21:56:47.346Z,27.30
2023-05-17T21:58:57.093Z,27.30
2023-05-17T22:01:06.360Z,27.20
2023-05-17T22:03:15.078Z,27.20
2023-05-17T22:05:26.104Z,27.10
2023-05-17T22:07:35.639Z,27.20
2023-05-17T22:09:46.589Z,27.10
2023-05-17T22:12:00.707Z,27.10
2023-05-17T22:14:12.186Z,27.10
2023-05-17T22:16:26.593Z,27.10
2023-05-17T22:18:36.605Z,27.00
2023-05-17T22:20:50.574Z,27.00
2023-05-17T22:22:59.191Z,27.00
2023-05-17T22:25:10.162Z,26.90
2023-05-17T22:27:20.108Z,26.90
2023-05-17T22:29:29.643Z,26.90
2023-05-17T22:31:40.529Z,26.90
2023-05-17T22:33:48.770Z,26.90
2023-05-17T22:35:58.259Z,26.90
2023-05-17T22:38:06.156Z,26.90
2023-05-17T22:40:15.958Z,26.90
2023-05-17T22:42:31.179Z,26.90
2023-05-17T22:44:42.811Z,26.80
2023-05-17T22:46:54.137Z,26.80
2023-05-17T22:49:11.862Z,26.80
2023-05-17T22:51:19.850Z,26.70
2023-05-17T22:53:27.100Z,26.70
2023-05-17T22:55:34.771Z,26.70
2023-05-17T22:57:43.559Z,26.80
2023-05-17T22:59:50.799Z,26.80
2023-05-17T23:01:57.805Z,26.70
2023-05-17T23:04:05.171Z,26.60
2023-05-17T23:06:12.859Z,26.70
2023-05-17T23:08:23.415Z,26.80
2023-05-17T23:10:30.704Z,26.80
2023-05-17T23:12:38.212Z,26.90
2023-05-17T23:14:46.914Z,27.00
2023-05-17T23:16:54.379Z,27.00
2023-05-17T23:19:01.536Z,27.10
2023-05-17T23:21:08.787Z,27.10
2023-05-17T23:23:16.526Z,27.10
2023-05-17T23:25:24.087Z,27.20
2023-05-17T23:27:31.319Z,27.20
2023-05-17T23:29:39.062Z,27.30
2023-05-17T23:31:49.725Z,27.30
2023-05-17T23:33:57.572Z,27.40
2023-05-17T23:36:05.214Z,27.40
2023-05-17T23:38:12.558Z,27.50
2023-05-17T23:40:20.010Z,27.60
2023-05-17T23:42:27.483Z,27.70
2023-05-17T23:44:38.960Z,27.90
2023-05-17T23:46:47.892Z,28.20
2023-05-17T23:48:55.224Z,28.50
2023-05-17T23:51:02.433Z,28.60
2023-05-17T23:53:10.655Z,28.70
2023-05-17T23:55:17.952Z,28.70
2023-05-17T23:57:25.274Z,28.70
2023-05-17T23:59:33.686Z,28.60
